Terminal Aerodrome Forecast
Issued by NWS

Home | Current Version | Previous Version | Text Only | Print | Product List | Glossary On
Versions: 1 2 3 4 5 6 7 8 9 10 11 12 13 14 15 16 17 18
000
FTUS42 KJAX 230000 AAA
TAFVQQ
TAF AMD
KVQQ 230002Z 2300/2324 15007KT P6SM SCT050
     FM230200 20004KT P6SM SCT250
     FM231400 31005KT P6SM SCT035=

USA.gov is the U.S. government's official web portal to all federal, state and local government web resources and services.